Time;durP1;ratioP1;P1;durP2;ratioP2;P2;SDS_P1;SDS_P2;PMS_P1;PMS_P2;Temp;Humidity;BMP_temperature;BMP_pressure;BME280_temperature;BME280_humidity;BME280_pressure;Samples;Min_cycle;Max_cycle;Signal;HPM_P1;HPM_P2
2023/08/29 00:01:10;;;;;;;13.48;4.40;;;15.80;99.90;;;;;;4968467;28;20125;-61
2023/08/29 00:03:37;;;;;;;9.52;4.63;;;15.80;99.90;;;;;;4969148;28;20075;-61
2023/08/29 00:06:04;;;;;;;14.07;4.78;;;15.80;99.90;;;;;;4968757;28;20534;-62
2023/08/29 00:08:34;;;;;;;13.13;5.85;;;15.90;99.90;;;;;;4968877;28;20098;-62
2023/08/29 00:11:02;;;;;;;19.13;7.60;;;15.90;99.90;;;;;;4968539;28;20078;-61
2023/08/29 00:13:29;;;;;;;15.48;6.25;;;15.80;99.90;;;;;;4966837;28;20138;-61
2023/08/29 00:15:56;;;;;;;12.43;5.25;;;15.80;99.90;;;;;;4951046;28;20054;-62
2023/08/29 00:18:23;;;;;;;13.43;3.95;;;15.80;99.90;;;;;;4968702;28;20133;-62
2023/08/29 00:20:50;;;;;;;11.48;4.30;;;15.80;99.90;;;;;;4968958;28;20368;-63
2023/08/29 00:23:17;;;;;;;19.13;5.90;;;15.80;99.90;;;;;;4968575;28;20560;-63
2023/08/29 00:25:44;;;;;;;9.65;5.00;;;15.80;99.90;;;;;;4968827;28;20101;-62
2023/08/29 00:28:11;;;;;;;7.05;4.22;;;15.80;99.90;;;;;;4968602;28;20051;-63
2023/08/29 00:30:39;;;;;;;11.00;4.45;;;15.80;99.90;;;;;;4968930;28;20090;-62
2023/08/29 00:33:10;;;;;;;11.52;4.25;;;15.80;99.90;;;;;;4968875;28;20387;-62
2023/08/29 00:35:37;;;;;;;7.13;3.67;;;15.80;99.90;;;;;;4967624;28;20055;-62
2023/08/29 00:38:03;;;;;;;10.07;4.00;;;15.80;99.90;;;;;;4968592;28;20117;-62
2023/08/29 00:40:31;;;;;;;10.80;4.90;;;15.70;99.90;;;;;;4968664;28;20494;-63
2023/08/29 00:43:02;;;;;;;12.88;4.28;;;15.70;99.90;;;;;;4968188;28;20462;-62
2023/08/29 00:45:33;;;;;;;10.52;4.35;;;15.70;99.90;;;;;;4968744;28;20047;-63
2023/08/29 00:48:00;;;;;;;15.32;5.43;;;15.70;99.90;;;;;;4968303;28;20392;-62
2023/08/29 00:50:27;;;;;;;8.32;4.57;;;15.70;99.90;;;;;;4959685;28;20132;-62
2023/08/29 00:52:58;;;;;;;11.07;3.53;;;15.70;99.90;;;;;;4968512;28;20105;-63
2023/08/29 00:55:25;;;;;;;14.75;4.85;;;15.80;99.90;;;;;;4967183;28;20457;-62
2023/08/29 00:57:56;;;;;;;8.93;4.00;;;15.80;99.90;;;;;;4951575;28;20414;-64
2023/08/29 01:00:23;;;;;;;9.35;3.28;;;15.80;99.90;;;;;;4971090;28;20482;-63
2023/08/29 01:02:50;;;;;;;6.95;3.55;;;15.80;99.90;;;;;;4971177;28;20093;-63
2023/08/29 01:05:17;;;;;;;8.20;3.95;;;15.90;99.90;;;;;;4972188;28;20039;-62
2023/08/29 01:07:44;;;;;;;6.50;3.20;;;15.90;99.90;;;;;;4972513;28;20053;-62
2023/08/29 01:10:11;;;;;;;7.85;3.75;;;15.80;99.90;;;;;;4971737;28;20541;-63
2023/08/29 01:12:58;;;;;;;9.95;3.67;;;15.80;99.90;;;;;;4971092;28;20054;-62
2023/08/29 01:15:27;;;;;;;8.50;3.72;;;15.90;99.90;;;;;;4971598;28;20054;-63
2023/08/29 01:18:00;;;;;;;11.38;4.25;;;15.90;99.90;;;;;;4969130;28;20580;-63
2023/08/29 01:20:31;;;;;;;12.40;3.90;;;15.90;99.90;;;;;;4613210;28;9999829;-63
2023/08/29 01:23:39;;;;;;;8.23;3.90;;;15.90;99.90;;;;;;4971538;28;20359;-62
2023/08/29 01:26:16;;;;;;;7.70;3.30;;;15.80;99.90;;;;;;4969438;28;20055;-62
2023/08/29 01:28:44;;;;;;;9.18;4.25;;;15.80;99.90;;;;;;4954153;28;20234;-63
2023/08/29 01:31:10;;;;;;;12.75;5.97;;;15.80;99.90;;;;;;4954073;28;20499;-62
2023/08/29 01:33:38;;;;;;;7.90;3.92;;;15.70;99.90;;;;;;4971695;28;20513;-64
2023/08/29 01:36:05;;;;;;;6.75;3.45;;;15.70;99.90;;;;;;4970854;28;20093;-63
2023/08/29 01:38:32;;;;;;;7.40;3.65;;;15.70;99.90;;;;;;4971719;28;20113;-62
2023/08/29 01:40:59;;;;;;;9.30;3.83;;;15.70;99.90;;;;;;4970631;28;20058;-62
2023/08/29 01:43:26;;;;;;;8.48;4.03;;;15.70;99.90;;;;;;4971071;28;20046;-62
2023/08/29 01:45:53;;;;;;;11.80;4.32;;;15.80;99.90;;;;;;4971221;28;20114;-63
2023/08/29 01:48:20;;;;;;;9.65;3.67;;;15.70;99.90;;;;;;4979184;28;20046;-61
2023/08/29 01:50:48;;;;;;;9.02;3.70;;;15.70;99.90;;;;;;4970605;28;20093;-62
2023/08/29 01:53:15;;;;;;;6.50;3.08;;;15.70;99.90;;;;;;4956831;28;20141;-62
2023/08/29 01:55:42;;;;;;;11.82;3.90;;;15.70;99.90;;;;;;4953835;28;20046;-63
2023/08/29 01:58:09;;;;;;;9.02;3.50;;;15.70;99.90;;;;;;4953683;28;20465;-63
2023/08/29 02:00:36;;;;;;;9.57;3.45;;;15.80;99.90;;;;;;4969745;28;20522;-64
2023/08/29 02:03:02;;;;;;;8.63;3.70;;;15.80;99.90;;;;;;4938286;28;20102;-63
2023/08/29 02:05:29;;;;;;;7.82;4.13;;;15.80;99.90;;;;;;4953779;28;20043;-63
2023/08/29 02:07:56;;;;;;;7.80;3.38;;;15.80;99.90;;;;;;4970970;28;20450;-63
2023/08/29 02:10:23;;;;;;;17.15;5.90;;;15.70;99.90;;;;;;4970263;28;20043;-63
2023/08/29 02:12:50;;;;;;;9.57;4.60;;;15.70;99.90;;;;;;4970633;28;20055;-63
2023/08/29 02:15:16;;;;;;;8.55;4.05;;;15.70;99.90;;;;;;4970841;28;20050;-62
2023/08/29 02:17:44;;;;;;;9.52;3.70;;;15.70;99.90;;;;;;4969378;28;20051;-63
2023/08/29 02:20:11;;;;;;;9.40;3.42;;;15.70;99.90;;;;;;4969965;28;20050;-63
2023/08/29 02:22:38;;;;;;;8.55;4.05;;;15.70;99.90;;;;;;4970468;28;20568;-63
2023/08/29 02:25:05;;;;;;;7.60;4.07;;;15.70;99.90;;;;;;4970775;28;20050;-63
2023/08/29 02:27:32;;;;;;;8.77;3.20;;;15.80;99.90;;;;;;4968386;28;20518;-63
2023/08/29 02:29:59;;;;;;;10.02;4.57;;;15.80;99.90;;;;;;4970508;28;20038;-62
2023/08/29 02:32:26;;;;;;;13.02;4.75;;;15.80;99.90;;;;;;4970148;28;20054;-63
2023/08/29 02:34:53;;;;;;;9.52;3.78;;;15.80;99.90;;;;;;4952338;28;20046;-63
2023/08/29 02:37:20;;;;;;;6.40;3.15;;;15.80;99.90;;;;;;4970166;28;20175;-63
2023/08/29 02:39:46;;;;;;;6.07;3.03;;;15.70;99.90;;;;;;4970516;28;20133;-63
2023/08/29 02:42:13;;;;;;;7.65;3.67;;;15.70;99.90;;;;;;4951650;28;20502;-63
2023/08/29 02:44:40;;;;;;;9.25;3.38;;;15.70;99.90;;;;;;4964370;28;20072;-63
2023/08/29 02:47:07;;;;;;;8.55;3.20;;;15.60;99.90;;;;;;4964168;28;20054;-63
2023/08/29 02:49:34;;;;;;;11.27;3.95;;;15.60;99.90;;;;;;4965558;28;20047;-66
2023/08/29 02:52:00;;;;;;;6.82;3.67;;;15.60;99.90;;;;;;4950478;28;20043;-64
2023/08/29 02:54:27;;;;;;;8.55;4.57;;;15.60;99.90;;;;;;4965551;28;20042;-63
2023/08/29 02:56:54;;;;;;;8.77;3.47;;;15.60;99.90;;;;;;4968980;28;20042;-63
2023/08/29 02:59:21;;;;;;;8.15;3.78;;;15.60;99.90;;;;;;4968214;28;20058;-63
2023/08/29 03:01:47;;;;;;;8.45;3.50;;;15.60;99.90;;;;;;4968917;28;20051;-64
2023/08/29 03:04:14;;;;;;;7.07;3.55;;;15.60;99.90;;;;;;4968918;28;20105;-63
2023/08/29 03:06:41;;;;;;;13.98;4.53;;;15.60;99.90;;;;;;4968684;28;20110;-64
2023/08/29 03:09:08;;;;;;;9.75;4.28;;;15.50;99.90;;;;;;4968671;28;20117;-63
2023/08/29 03:11:34;;;;;;;7.85;3.35;;;15.60;99.90;;;;;;4969845;28;20113;-63
2023/08/29 03:14:03;;;;;;;6.03;3.50;;;15.60;99.90;;;;;;4935627;28;20513;-63
2023/08/29 03:16:30;;;;;;;11.32;4.38;;;15.60;99.90;;;;;;4968558;28;20443;-63
2023/08/29 03:18:57;;;;;;;13.95;7.05;;;15.60;99.90;;;;;;4968703;28;20078;-63
2023/08/29 03:21:24;;;;;;;14.45;4.78;;;15.70;99.90;;;;;;4968060;28;20050;-62
2023/08/29 03:23:51;;;;;;;14.65;5.57;;;15.60;99.90;;;;;;4962666;28;20298;-62
2023/08/29 03:26:18;;;;;;;13.88;6.20;;;15.60;99.90;;;;;;4969046;28;20050;-62
2023/08/29 03:28:45;;;;;;;12.05;5.82;;;15.60;99.90;;;;;;4968079;28;20047;-63
2023/08/29 03:31:13;;;;;;;12.98;3.85;;;15.70;99.90;;;;;;4968320;28;20082;-63
2023/08/29 03:33:40;;;;;;;14.98;5.95;;;15.70;99.90;;;;;;4968008;28;20082;-63
2023/08/29 03:36:07;;;;;;;15.90;6.03;;;15.70;99.90;;;;;;4943883;28;20145;-65
2023/08/29 03:38:38;;;;;;;16.63;5.82;;;15.60;99.90;;;;;;4967885;28;20046;-63
2023/08/29 03:41:06;;;;;;;16.33;5.15;;;15.70;99.90;;;;;;4968636;28;20058;-63
2023/08/29 03:43:33;;;;;;;9.68;4.43;;;15.70;99.90;;;;;;4968594;28;20047;-63
2023/08/29 03:46:02;;;;;;;11.68;4.40;;;15.60;99.90;;;;;;4967553;28;20054;-64
2023/08/29 03:48:30;;;;;;;10.48;4.60;;;15.70;99.90;;;;;;4968608;28;20165;-63
2023/08/29 03:50:58;;;;;;;19.45;6.13;;;15.70;99.90;;;;;;4968870;28;20070;-63
2023/08/29 03:53:25;;;;;;;7.55;3.33;;;15.70;99.90;;;;;;4968914;28;20053;-62
2023/08/29 03:55:52;;;;;;;8.43;4.18;;;15.80;99.90;;;;;;4968164;28;20142;-62
2023/08/29 03:58:18;;;;;;;11.07;5.18;;;15.70;99.90;;;;;;4968198;28;20486;-62
2023/08/29 04:00:45;;;;;;;9.35;4.80;;;15.70;99.90;;;;;;4968080;28;20051;-62
2023/08/29 04:03:12;;;;;;;18.20;8.38;;;15.70;99.90;;;;;;4968198;28;20050;-62
2023/08/29 04:05:39;;;;;;;23.70;10.80;;;15.70;99.90;;;;;;4979499;28;20057;-63
2023/08/29 04:08:07;;;;;;;12.65;5.70;;;15.70;99.90;;;;;;4968538;28;20162;-63
2023/08/29 04:10:38;;;;;;;7.35;3.13;;;15.70;99.90;;;;;;4968147;28;20055;-63
2023/08/29 04:13:06;;;;;;;9.52;4.15;;;15.60;99.90;;;;;;4967882;28;20051;-62
2023/08/29 04:15:36;;;;;;;10.32;5.15;;;15.60;99.90;;;;;;4968348;28;20042;-63
2023/08/29 04:18:03;;;;;;;13.57;4.93;;;15.70;99.90;;;;;;4968719;28;20054;-63
2023/08/29 04:20:31;;;;;;;9.27;4.50;;;15.70;99.90;;;;;;4959450;28;20493;-61
2023/08/29 04:22:58;;;;;;;10.07;4.25;;;15.70;99.90;;;;;;4965804;28;20055;-61
2023/08/29 04:25:28;;;;;;;7.70;3.63;;;15.70;99.90;;;;;;4968345;28;20446;-62
2023/08/29 04:27:55;;;;;;;8.77;3.13;;;15.80;99.90;;;;;;4968728;28;20085;-61
2023/08/29 04:30:21;;;;;;;11.38;4.35;;;15.80;99.90;;;;;;4968415;28;20047;-62
2023/08/29 04:32:50;;;;;;;6.63;2.95;;;15.70;99.90;;;;;;4970505;28;20038;-62
2023/08/29 04:35:17;;;;;;;8.05;2.97;;;15.70;99.90;;;;;;4972263;28;20139;-61
2023/08/29 04:37:47;;;;;;;5.90;3.10;;;15.70;99.90;;;;;;4972215;28;20061;-62
2023/08/29 04:40:15;;;;;;;9.57;3.65;;;15.70;99.90;;;;;;4971601;28;20459;-62
2023/08/29 04:42:42;;;;;;;5.28;2.80;;;15.70;99.90;;;;;;4972214;28;20097;-63
2023/08/29 04:45:09;;;;;;;6.15;2.50;;;15.70;99.90;;;;;;4972143;28;20114;-62
2023/08/29 04:47:36;;;;;;;4.80;2.47;;;15.70;99.90;;;;;;4971964;28;20109;-63
2023/08/29 04:50:03;;;;;;;7.07;2.45;;;15.70;99.90;;;;;;4972308;28;20062;-63
2023/08/29 04:52:30;;;;;;;6.43;2.38;;;15.70;99.90;;;;;;4968038;28;20043;-62
2023/08/29 04:54:57;;;;;;;6.75;2.58;;;15.70;99.90;;;;;;4972123;28;20047;-62
2023/08/29 04:57:24;;;;;;;8.18;3.75;;;15.70;99.90;;;;;;4971694;28;20054;-62
2023/08/29 04:59:51;;;;;;;7.65;3.17;;;15.70;99.90;;;;;;4971949;28;20042;-62
2023/08/29 05:02:18;;;;;;;9.70;2.63;;;15.70;99.90;;;;;;4971987;28;20047;-62
2023/08/29 05:04:47;;;;;;;5.80;2.90;;;15.70;99.90;;;;;;4972186;28;20061;-62
2023/08/29 05:07:14;;;;;;;6.80;2.08;;;15.60;99.90;;;;;;4971553;28;20047;-61
2023/08/29 05:09:41;;;;;;;6.82;2.22;;;15.70;99.90;;;;;;4971516;28;20090;-63
2023/08/29 05:12:10;;;;;;;4.78;2.47;;;15.70;99.90;;;;;;4963217;28;20051;-62
2023/08/29 05:14:38;;;;;;;5.55;2.00;;;15.70;99.90;;;;;;4971769;28;20707;-63
2023/08/29 05:17:06;;;;;;;4.78;2.20;;;15.70;99.90;;;;;;4971148;28;20589;-62
2023/08/29 05:19:32;;;;;;;6.57;2.70;;;15.70;99.90;;;;;;4971702;28;20127;-64
2023/08/29 05:21:59;;;;;;;5.05;2.20;;;15.70;99.90;;;;;;4954184;28;20047;-63
2023/08/29 05:24:26;;;;;;;6.35;2.47;;;15.70;99.90;;;;;;4961673;28;20058;-63
2023/08/29 05:26:53;;;;;;;6.22;2.60;;;15.70;99.90;;;;;;4971518;28;20089;-63
2023/08/29 05:29:20;;;;;;;4.38;2.67;;;15.70;99.90;;;;;;4971946;28;20060;-63
2023/08/29 05:31:47;;;;;;;10.75;2.90;;;15.70;99.90;;;;;;4971389;28;20127;-63
2023/08/29 05:34:14;;;;;;;7.75;2.28;;;15.80;99.90;;;;;;4971669;28;20462;-63
2023/08/29 05:36:41;;;;;;;6.97;2.60;;;15.80;99.90;;;;;;4969873;28;20051;-63
2023/08/29 05:39:07;;;;;;;7.95;2.67;;;15.80;99.90;;;;;;4970935;28;20050;-63
2023/08/29 05:41:34;;;;;;;5.50;2.63;;;15.80;99.90;;;;;;4971393;28;20043;-61
2023/08/29 05:44:01;;;;;;;6.70;2.30;;;15.90;99.90;;;;;;4969922;28;20501;-62
2023/08/29 05:46:28;;;;;;;8.02;2.25;;;15.80;99.90;;;;;;4971279;28;20050;-63
2023/08/29 05:48:55;;;;;;;4.95;1.90;;;15.90;99.90;;;;;;4968949;28;20474;-63
2023/08/29 05:51:21;;;;;;;3.13;2.20;;;15.90;99.90;;;;;;4970638;28;20137;-62
2023/08/29 05:53:48;;;;;;;8.77;2.08;;;15.90;99.90;;;;;;4970401;28;20102;-62
2023/08/29 05:56:15;;;;;;;9.68;2.97;;;15.90;99.90;;;;;;4970471;28;20051;-63
2023/08/29 05:58:42;;;;;;;11.98;2.85;;;15.90;99.90;;;;;;4970858;28;20047;-63
2023/08/29 06:01:09;;;;;;;9.95;2.63;;;15.90;99.90;;;;;;4970839;28;20558;-63
2023/08/29 06:03:36;;;;;;;5.82;2.33;;;16.00;99.90;;;;;;4970723;28;20042;-63
2023/08/29 06:06:03;;;;;;;8.20;2.55;;;16.00;99.90;;;;;;4969831;28;20095;-63
2023/08/29 06:08:33;;;;;;;11.05;3.28;;;16.10;99.90;;;;;;4970702;28;20065;-63
2023/08/29 06:11:01;;;;;;;6.82;2.63;;;16.00;99.90;;;;;;4968246;28;20094;-63
2023/08/29 06:13:27;;;;;;;7.90;2.30;;;16.10;99.90;;;;;;4969212;28;20062;-63
2023/08/29 06:15:54;;;;;;;4.53;2.50;;;16.10;99.90;;;;;;4970050;28;20042;-62
2023/08/29 06:18:21;;;;;;;16.75;2.78;;;16.00;99.90;;;;;;4970780;28;20683;-62
2023/08/29 06:20:49;;;;;;;7.93;2.05;;;16.00;99.90;;;;;;4970607;28;20043;-63
2023/08/29 06:23:16;;;;;;;4.55;2.78;;;16.10;99.90;;;;;;4970726;28;20074;-63
2023/08/29 06:25:42;;;;;;;6.95;2.20;;;16.10;99.90;;;;;;4970046;28;20102;-62
2023/08/29 06:28:09;;;;;;;8.35;2.70;;;16.10;99.90;;;;;;4970677;28;20054;-63
2023/08/29 06:30:37;;;;;;;6.22;2.85;;;16.10;99.90;;;;;;4970046;28;20105;-62
2023/08/29 06:33:06;;;;;;;6.80;2.25;;;16.20;99.90;;;;;;4969993;28;20078;-63
2023/08/29 06:35:39;;;;;;;8.23;2.15;;;16.20;99.90;;;;;;4969223;28;20043;-63
2023/08/29 06:38:06;;;;;;;5.00;2.28;;;16.20;99.90;;;;;;4969079;28;20046;-63
2023/08/29 06:40:35;;;;;;;7.50;2.28;;;16.20;99.90;;;;;;4970311;28;20130;-63
2023/08/29 06:43:03;;;;;;;6.85;3.17;;;16.30;99.90;;;;;;4969267;28;20403;-63
2023/08/29 06:45:30;;;;;;;7.07;2.55;;;16.30;99.90;;;;;;4968503;28;20042;-63
2023/08/29 06:47:56;;;;;;;5.65;2.70;;;16.20;99.90;;;;;;4969739;28;20050;-62
2023/08/29 06:50:23;;;;;;;6.68;2.25;;;16.30;99.90;;;;;;4969555;28;20051;-60
2023/08/29 06:52:50;;;;;;;6.13;2.95;;;16.30;99.90;;;;;;4970238;28;20110;-62
2023/08/29 06:55:17;;;;;;;7.75;2.15;;;16.30;99.90;;;;;;4969157;28;20050;-61
2023/08/29 06:57:44;;;;;;;5.97;3.00;;;16.30;99.90;;;;;;4970009;28;20078;-61
2023/08/29 07:00:12;;;;;;;4.78;2.25;;;16.30;99.90;;;;;;4969367;28;20129;-61
2023/08/29 07:02:39;;;;;;;5.75;2.33;;;16.30;99.90;;;;;;4967618;28;20043;-61
2023/08/29 07:05:07;;;;;;;5.82;3.05;;;16.30;99.90;;;;;;4969130;28;20062;-61
2023/08/29 07:07:36;;;;;;;6.07;2.50;;;16.40;99.90;;;;;;4969209;28;20066;-61
2023/08/29 07:10:04;;;;;;;5.32;2.97;;;16.40;99.90;;;;;;4954880;28;20385;-62
2023/08/29 07:12:31;;;;;;;5.60;2.83;;;16.40;99.90;;;;;;4968939;28;20137;-63
2023/08/29 07:15:00;;;;;;;6.55;2.83;;;16.50;99.90;;;;;;4968183;28;20043;-61
2023/08/29 07:17:27;;;;;;;4.05;2.15;;;16.50;99.90;;;;;;4952230;28;20059;-60
2023/08/29 07:19:54;;;;;;;8.07;2.03;;;16.60;99.90;;;;;;4969959;28;20055;-62
2023/08/29 07:22:21;;;;;;;2.72;2.25;;;16.60;99.90;;;;;;4968851;28;20097;-62
2023/08/29 07:24:51;;;;;;;5.68;2.50;;;16.70;99.90;;;;;;4965010;28;20089;-63
2023/08/29 07:27:18;;;;;;;4.65;2.03;;;16.50;99.90;;;;;;4969386;28;20049;-62
2023/08/29 07:29:45;;;;;;;7.50;2.28;;;16.70;99.90;;;;;;4969151;28;20490;-62
2023/08/29 07:32:12;;;;;;;5.88;2.60;;;16.70;99.90;;;;;;4965744;28;20055;-66
2023/08/29 07:34:40;;;;;;;4.95;2.33;;;16.70;99.90;;;;;;4968332;28;20057;-62
2023/08/29 07:37:07;;;;;;;5.53;3.13;;;16.80;99.90;;;;;;4968281;28;20058;-62
2023/08/29 07:39:34;;;;;;;4.93;2.00;;;16.80;99.90;;;;;;4951095;28;20046;-61
2023/08/29 07:42:02;;;;;;;7.22;2.10;;;16.80;99.90;;;;;;4968774;28;20105;-61
2023/08/29 07:44:30;;;;;;;6.72;2.30;;;16.80;99.90;;;;;;4968993;28;20055;-62
2023/08/29 07:46:57;;;;;;;7.47;2.40;;;16.90;99.90;;;;;;4967831;28;20130;-62
2023/08/29 07:49:41;;;;;;;;;;;16.90;99.90;;;;;;4968970;28;20048;-61
2023/08/29 07:52:08;;;;;;;12.13;2.33;;;16.90;99.90;;;;;;4967696;28;21142;-61
2023/08/29 07:54:35;;;;;;;10.82;2.03;;;17.00;99.90;;;;;;4968408;28;20050;-60
2023/08/29 07:57:02;;;;;;;7.85;1.85;;;17.10;99.90;;;;;;4968072;28;20093;-59
2023/08/29 07:59:29;;;;;;;6.07;2.53;;;17.10;99.90;;;;;;4967399;28;20061;-62
2023/08/29 08:01:55;;;;;;;3.92;2.05;;;17.00;99.90;;;;;;4968279;28;20055;-59
2023/08/29 08:04:23;;;;;;;6.32;1.80;;;17.00;99.90;;;;;;4949220;28;20109;-59
2023/08/29 08:06:49;;;;;;;6.35;2.10;;;16.80;99.90;;;;;;4967136;28;20516;-60
2023/08/29 08:09:16;;;;;;;10.15;3.20;;;16.90;99.90;;;;;;4968106;28;20094;-58
2023/08/29 08:11:43;;;;;;;4.85;1.80;;;17.10;99.90;;;;;;4968560;28;20109;-59
2023/08/29 08:14:11;;;;;;;9.73;2.33;;;17.10;99.90;;;;;;4965864;28;20054;-59
2023/08/29 08:16:38;;;;;;;6.05;1.95;;;17.30;99.90;;;;;;4961443;28;20058;-59
2023/08/29 08:19:05;;;;;;;6.68;2.13;;;17.40;99.90;;;;;;4966433;28;20113;-61
2023/08/29 08:21:32;;;;;;;5.72;2.03;;;17.40;99.90;;;;;;4965351;28;20515;-60
2023/08/29 08:23:58;;;;;;;6.90;1.85;;;17.40;99.90;;;;;;4965277;28;20042;-60
2023/08/29 08:26:26;;;;;;;2.33;1.20;;;17.40;99.90;;;;;;4965167;28;20051;-60
2023/08/29 08:28:55;;;;;;;9.60;2.15;;;17.50;99.90;;;;;;4965396;28;20293;-60
2023/08/29 08:31:21;;;;;;;6.25;1.80;;;17.60;99.90;;;;;;4965395;28;20106;-60
2023/08/29 08:33:48;;;;;;;3.75;1.95;;;17.60;99.90;;;;;;4964671;28;20062;-59
2023/08/29 08:36:15;;;;;;;7.00;2.05;;;17.60;99.90;;;;;;4974812;28;20130;-60
2023/08/29 08:38:42;;;;;;;8.82;2.55;;;17.70;99.90;;;;;;4967246;28;20051;-60
2023/08/29 08:41:10;;;;;;;5.53;2.35;;;17.80;99.90;;;;;;4967274;28;20117;-59
2023/08/29 08:43:38;;;;;;;4.90;2.05;;;17.90;99.90;;;;;;4967137;28;20090;-59
2023/08/29 08:46:05;;;;;;;4.10;1.98;;;17.90;99.90;;;;;;4949012;28;20058;-59
2023/08/29 08:48:31;;;;;;;3.08;1.38;;;17.90;99.90;;;;;;4967116;28;20059;-59
2023/08/29 08:50:58;;;;;;;4.97;1.75;;;18.00;99.90;;;;;;4965472;28;20102;-59
2023/08/29 08:53:25;;;;;;;5.18;1.88;;;17.90;99.90;;;;;;4965337;28;20057;-59
2023/08/29 08:55:52;;;;;;;6.05;2.20;;;18.00;99.90;;;;;;4949751;28;20047;-59
2023/08/29 08:58:19;;;;;;;6.95;1.90;;;18.10;99.90;;;;;;4950119;28;20047;-59
2023/08/29 09:00:46;;;;;;;4.82;1.30;;;18.10;99.90;;;;;;4949482;28;20074;-59
2023/08/29 09:03:13;;;;;;;11.05;2.72;;;18.10;99.90;;;;;;4967046;28;20200;-59
2023/08/29 09:05:41;;;;;;;3.20;1.88;;;18.20;99.90;;;;;;4966917;28;20165;-59
2023/08/29 09:08:09;;;;;;;5.22;1.50;;;18.30;99.90;;;;;;4966758;28;20047;-59
2023/08/29 09:10:39;;;;;;;3.72;1.73;;;18.30;99.90;;;;;;4967187;28;20046;-60
2023/08/29 09:13:06;;;;;;;6.18;2.20;;;18.40;99.90;;;;;;4966744;28;20051;-59
2023/08/29 09:15:34;;;;;;;6.68;2.00;;;18.40;99.90;;;;;;4966780;28;20039;-62
2023/08/29 09:18:01;;;;;;;4.97;2.45;;;18.50;99.90;;;;;;4965822;28;20054;-60
2023/08/29 09:20:29;;;;;;;5.68;1.90;;;18.60;99.90;;;;;;4969383;28;20058;-59
2023/08/29 09:22:56;;;;;;;5.75;2.08;;;18.60;99.90;;;;;;4970709;28;20122;-61
2023/08/29 09:25:25;;;;;;;5.53;1.73;;;18.70;99.90;;;;;;4968688;28;20077;-60
2023/08/29 09:27:53;;;;;;;4.43;1.67;;;18.80;99.90;;;;;;4970127;28;20521;-63
2023/08/29 09:30:20;;;;;;;4.40;1.50;;;18.70;99.90;;;;;;4968929;28;20094;-60
2023/08/29 09:32:53;;;;;;;2.53;1.42;;;18.60;99.90;;;;;;4969138;28;20524;-60
2023/08/29 09:35:22;;;;;;;4.10;1.63;;;18.70;99.90;;;;;;4969771;28;20213;-60
2023/08/29 09:37:54;;;;;;;3.35;1.67;;;18.90;99.90;;;;;;4969631;28;20051;-60
2023/08/29 09:40:21;;;;;;;6.68;1.48;;;19.20;99.90;;;;;;4969606;28;20498;-60
2023/08/29 09:42:58;;;;;;;3.40;1.45;;;19.50;99.90;;;;;;4969664;28;20494;-60
2023/08/29 09:45:25;;;;;;;4.75;1.65;;;19.70;99.90;;;;;;4968999;28;20042;-60
2023/08/29 09:47:53;;;;;;;2.78;1.45;;;20.00;99.90;;;;;;4969304;28;20294;-60
2023/08/29 09:50:23;;;;;;;3.97;2.00;;;20.30;99.90;;;;;;4952804;28;20423;-60
2023/08/29 09:52:50;;;;;;;10.43;2.70;;;20.30;99.90;;;;;;4968575;28;20110;-60
2023/08/29 09:55:17;;;;;;;7.97;1.73;;;20.40;99.90;;;;;;4968440;28;20090;-59
2023/08/29 09:57:43;;;;;;;11.55;2.00;;;20.50;99.90;;;;;;4952272;28;20058;-59
2023/08/29 10:00:12;;;;;;;4.47;2.20;;;20.40;99.90;;;;;;4952354;28;20070;-60
2023/08/29 10:02:40;;;;;;;11.60;2.30;;;20.40;99.90;;;;;;4968045;28;20047;-60
2023/08/29 10:05:08;;;;;;;5.53;2.13;;;20.40;99.90;;;;;;4935731;28;20188;-60
2023/08/29 10:07:45;;;;;;;2.75;1.60;;;20.20;99.90;;;;;;4969142;28;20049;-60
2023/08/29 10:10:12;;;;;;;3.80;1.42;;;20.00;99.90;;;;;;4946350;28;20059;-60
2023/08/29 10:12:39;;;;;;;7.22;1.50;;;20.00;99.90;;;;;;4974418;28;20459;-60
2023/08/29 10:15:08;;;;;;;4.43;2.15;;;20.10;99.90;;;;;;4968784;28;20057;-60
2023/08/29 10:17:35;;;;;;;6.03;1.63;;;20.00;99.90;;;;;;4968260;28;20409;-60
2023/08/29 10:20:12;;;;;;;3.88;1.58;;;20.00;99.90;;;;;;4951483;28;20473;-60
2023/08/29 10:22:48;;;;;;;3.20;1.40;;;20.10;99.90;;;;;;4968030;28;20043;-60
2023/08/29 10:25:15;;;;;;;6.20;1.50;;;20.10;99.90;;;;;;4968211;28;20058;-60
2023/08/29 10:27:42;;;;;;;2.53;1.50;;;20.10;99.90;;;;;;4967570;28;20053;-62
2023/08/29 10:30:09;;;;;;;2.70;1.27;;;20.00;99.90;;;;;;4968991;28;20047;-62
2023/08/29 10:32:36;;;;;;;2.75;1.63;;;19.90;99.90;;;;;;4953090;28;20661;-59
2023/08/29 10:35:04;;;;;;;2.05;1.27;;;19.90;99.90;;;;;;4951178;28;20120;-61
2023/08/29 10:37:30;;;;;;;2.70;1.55;;;19.90;99.90;;;;;;4619121;28;9999777;-60
2023/08/29 10:40:13;;;;;;;5.05;1.63;;;19.90;99.90;;;;;;4958165;28;20085;-60
2023/08/29 10:43:00;;;;;;;2.90;1.13;;;19.90;99.90;;;;;;4964890;28;20179;-60
2023/08/29 10:45:52;;;;;;;2.38;1.25;;;20.00;99.90;;;;;;4966878;28;20066;-60
2023/08/29 10:48:46;;;;;;;2.97;1.10;;;20.10;99.90;;;;;;4947113;28;20421;-59
2023/08/29 10:51:13;;;;;;;;;;;20.10;99.90;;;;;;4966359;28;20061;-60
2023/08/29 10:53:51;;;;;;;2.92;1.40;;;20.00;99.90;;;;;;4964832;28;20373;-59
2023/08/29 10:56:20;;;;;;;3.22;1.88;;;20.00;99.90;;;;;;4957474;28;20058;-60
2023/08/29 10:58:50;;;;;;;1.83;1.50;;;20.30;99.90;;;;;;4958134;28;20058;-59
2023/08/29 11:01:30;;;;;;;4.03;1.95;;;20.40;99.90;;;;;;4965881;28;20102;-59
2023/08/29 11:04:03;;;;;;;3.33;1.88;;;20.20;99.90;;;;;;4965729;28;20058;-59
2023/08/29 11:06:50;;;;;;;5.65;1.80;;;20.30;99.90;;;;;;4964999;28;20057;-59
2023/08/29 11:09:20;;;;;;;5.07;1.80;;;20.40;99.90;;;;;;4965622;28;20117;-58
2023/08/29 11:12:12;;;;;;;2.47;1.75;;;20.40;99.90;;;;;;4968287;28;20051;-59
2023/08/29 11:14:55;;;;;;;2.00;1.63;;;20.40;99.90;;;;;;4958434;28;20047;-60
2023/08/29 11:17:23;;;;;;;4.63;2.37;;;20.40;99.60;;;;;;4964468;28;20058;-60
2023/08/29 11:19:57;;;;;;;6.30;1.98;;;20.40;99.90;;;;;;4965788;28;20309;-60
2023/08/29 11:22:26;;;;;;;4.80;1.83;;;20.50;99.00;;;;;;4965046;28;20142;-60
2023/08/29 11:25:03;;;;;;;2.35;1.20;;;20.50;99.90;;;;;;4962664;28;20055;-59
2023/08/29 11:27:42;;;;;;;3.47;1.90;;;20.30;98.70;;;;;;4963747;28;20082;-59
2023/08/29 11:30:19;;;;;;;;;;;20.40;99.90;;;;;;4971220;28;20054;-59
2023/08/29 11:33:06;;;;;;;4.25;1.73;;;20.50;99.00;;;;;;4965006;28;20639;-59
2023/08/29 11:35:32;;;;;;;2.22;1.70;;;20.70;99.90;;;;;;4963605;28;20050;-59
2023/08/29 11:37:59;;;;;;;3.72;2.13;;;20.40;99.90;;;;;;4964714;28;20133;-59
2023/08/29 11:40:27;;;;;;;2.17;1.30;;;20.40;99.90;;;;;;4966180;28;20062;-60
2023/08/29 11:43:14;;;;;;;3.17;1.70;;;20.50;99.50;;;;;;4951176;28;20078;-59
2023/08/29 11:46:02;;;;;;;3.35;1.80;;;20.60;99.90;;;;;;4950664;28;20055;-59
2023/08/29 11:48:30;;;;;;;2.28;1.50;;;20.70;99.90;;;;;;4949108;28;20050;-59
2023/08/29 11:51:00;;;;;;;4.38;2.20;;;20.80;99.20;;;;;;4964784;28;20442;-59
2023/08/29 11:53:29;;;;;;;3.42;2.05;;;20.80;99.90;;;;;;4964691;28;20109;-59
2023/08/29 11:55:56;;;;;;;8.98;2.00;;;20.90;99.90;;;;;;4964503;28;20059;-60
2023/08/29 11:58:50;;;;;;;4.53;1.80;;;21.00;99.90;;;;;;4965458;28;20050;-59
2023/08/29 12:01:17;;;;;;;2.80;1.73;;;21.00;97.80;;;;;;4960227;28;20078;-60
2023/08/29 12:03:43;;;;;;;3.60;2.25;;;21.00;99.20;;;;;;4968223;28;20049;-60
2023/08/29 12:06:11;;;;;;;4.28;1.90;;;21.00;99.40;;;;;;4966844;28;20524;-59
2023/08/29 12:08:45;;;;;;;3.92;1.70;;;21.10;97.90;;;;;;4972336;28;20129;-60
2023/08/29 12:11:15;;;;;;;2.88;2.03;;;21.10;97.40;;;;;;4967929;28;20046;-60
2023/08/29 12:14:07;;;;;;;4.18;1.73;;;21.20;98.80;;;;;;4967587;28;20054;-60
2023/08/29 12:16:34;;;;;;;3.70;1.90;;;21.40;97.60;;;;;;4965369;28;20054;-59
2023/08/29 12:19:08;;;;;;;4.30;1.88;;;21.50;99.00;;;;;;4954779;28;20050;-59
2023/08/29 12:21:36;;;;;;;2.55;1.73;;;21.60;97.80;;;;;;4968303;28;20051;-59
2023/08/29 12:24:13;;;;;;;4.20;1.80;;;21.60;98.40;;;;;;4969500;28;20054;-59
2023/08/29 12:26:40;;;;;;;4.68;2.13;;;21.70;97.40;;;;;;4967586;28;20046;-62
2023/08/29 12:29:07;;;;;;;3.30;1.45;;;21.80;98.20;;;;;;4967470;28;20059;-58
2023/08/29 12:31:34;;;;;;;3.17;1.80;;;21.80;96.90;;;;;;4967227;28;20133;-59
2023/08/29 12:34:01;;;;;;;3.20;1.73;;;21.70;96.30;;;;;;4973242;28;20050;-58
2023/08/29 12:36:27;;;;;;;4.68;2.33;;;21.70;96.60;;;;;;4967766;28;20043;-59
2023/08/29 12:38:54;;;;;;;5.45;2.08;;;21.60;96.60;;;;;;4967066;28;20104;-59
2023/08/29 12:41:22;;;;;;;3.15;2.42;;;21.60;96.50;;;;;;4967340;28;20121;-59
2023/08/29 12:43:49;;;;;;;2.70;1.80;;;21.70;96.10;;;;;;4934365;28;20486;-60
2023/08/29 12:46:16;;;;;;;3.92;2.00;;;21.70;96.30;;;;;;4960039;28;20132;-59
2023/08/29 12:48:43;;;;;;;4.18;2.03;;;21.70;96.00;;;;;;4969587;28;20079;-59
2023/08/29 12:51:10;;;;;;;4.63;2.15;;;21.70;96.60;;;;;;4965377;28;20055;-59
2023/08/29 12:53:37;;;;;;;3.00;1.83;;;21.70;97.60;;;;;;4959527;28;20043;-59